sensor_id;sensor_type;location;lat;lon;timestamp;P1;durP1;ratioP1;P2;durP2;ratioP2
67685;SDS011;54469;52.090;4.312;2022-10-16T00:00:03;3.3;;;1;;
67685;SDS011;54469;52.090;4.312;2022-10-16T00:05:04;3.3;;;1;;
67685;SDS011;54469;52.090;4.312;2022-10-16T00:10:03;3.3;;;1;;
67685;SDS011;54469;52.090;4.312;2022-10-16T00:15:03;3.3;;;1;;
67685;SDS011;54469;52.090;4.312;2022-10-16T00:20:03;3.3;;;1;;
67685;SDS011;54469;52.090;4.312;2022-10-16T00:25:04;3.3;;;1;;
67685;SDS011;54469;52.090;4.312;2022-10-16T00:30:03;3.3;;;1;;
67685;SDS011;54469;52.090;4.312;2022-10-16T00:35:03;3.3;;;1;;
67685;SDS011;54469;52.090;4.312;2022-10-16T00:40:03;3.3;;;1;;
67685;SDS011;54469;52.090;4.312;2022-10-16T00:45:03;0.5;;;0.5;;
67685;SDS011;54469;52.090;4.312;2022-10-16T00:50:05;4.1;;;0.9;;
67685;SDS011;54469;52.090;4.312;2022-10-16T00:55:03;4.1;;;0.9;;
67685;SDS011;54469;52.090;4.312;2022-10-16T01:00:04;0.9;;;0.4;;
67685;SDS011;54469;52.090;4.312;2022-10-16T01:05:04;0.9;;;0.4;;
67685;SDS011;54469;52.090;4.312;2022-10-16T01:10:07;0.9;;;0.4;;
67685;SDS011;54469;52.090;4.312;2022-10-16T01:15:04;0.9;;;0.4;;
67685;SDS011;54469;52.090;4.312;2022-10-16T01:20:05;0.9;;;0.4;;
67685;SDS011;54469;52.090;4.312;2022-10-16T01:25:03;0.9;;;0.4;;
67685;SDS011;54469;52.090;4.312;2022-10-16T01:30:04;0.9;;;0.4;;
67685;SDS011;54469;52.090;4.312;2022-10-16T01:35:03;0.9;;;0.4;;
67685;SDS011;54469;52.090;4.312;2022-10-16T01:40:05;11.7;;;0.6;;
67685;SDS011;54469;52.090;4.312;2022-10-16T01:45:04;1.1;;;0.3;;
67685;SDS011;54469;52.090;4.312;2022-10-16T01:50:03;1.1;;;0.3;;
67685;SDS011;54469;52.090;4.312;2022-10-16T01:55:03;4.9;;;0.7;;
67685;SDS011;54469;52.090;4.312;2022-10-16T02:00:05;1.8;;;0.8;;
67685;SDS011;54469;52.090;4.312;2022-10-16T02:05:04;1.8;;;0.8;;
67685;SDS011;54469;52.090;4.312;2022-10-16T02:10:04;1.8;;;0.8;;
67685;SDS011;54469;52.090;4.312;2022-10-16T02:15:03;1.8;;;0.8;;
67685;SDS011;54469;52.090;4.312;2022-10-16T02:20:04;1.8;;;0.8;;
67685;SDS011;54469;52.090;4.312;2022-10-16T02:25:05;1.8;;;0.8;;
67685;SDS011;54469;52.090;4.312;2022-10-16T02:30:05;1.8;;;0.8;;
67685;SDS011;54469;52.090;4.312;2022-10-16T02:35:04;1.8;;;0.8;;
67685;SDS011;54469;52.090;4.312;2022-10-16T02:40:04;1.8;;;0.8;;
67685;SDS011;54469;52.090;4.312;2022-10-16T02:45:03;1.8;;;0.8;;
67685;SDS011;54469;52.090;4.312;2022-10-16T02:50:03;1.8;;;0.8;;
67685;SDS011;54469;52.090;4.312;2022-10-16T02:55:04;1.8;;;0.8;;
67685;SDS011;54469;52.090;4.312;2022-10-16T03:00:03;3.9;;;0.9;;
67685;SDS011;54469;52.090;4.312;2022-10-16T03:05:04;3.9;;;0.9;;
67685;SDS011;54469;52.090;4.312;2022-10-16T03:10:03;3.9;;;0.9;;
67685;SDS011;54469;52.090;4.312;2022-10-16T03:15:03;3.9;;;0.9;;
67685;SDS011;54469;52.090;4.312;2022-10-16T03:20:03;3.9;;;0.9;;
67685;SDS011;54469;52.090;4.312;2022-10-16T03:25:04;3.9;;;0.9;;
67685;SDS011;54469;52.090;4.312;2022-10-16T03:30:03;3.9;;;0.9;;
67685;SDS011;54469;52.090;4.312;2022-10-16T03:35:04;1.8;;;0.6;;
67685;SDS011;54469;52.090;4.312;2022-10-16T03:40:03;4.4;;;0.9;;
67685;SDS011;54469;52.090;4.312;2022-10-16T03:45:04;4.4;;;0.9;;
67685;SDS011;54469;52.090;4.312;2022-10-16T03:50:03;1.1;;;0.6;;
67685;SDS011;54469;52.090;4.312;2022-10-16T03:55:03;1.1;;;0.6;;
67685;SDS011;54469;52.090;4.312;2022-10-16T04:00:03;9.1;;;0.9;;
67685;SDS011;54469;52.090;4.312;2022-10-16T04:05:03;1.8;;;0.6;;
67685;SDS011;54469;52.090;4.312;2022-10-16T04:10:03;4.3;;;0.7;;
67685;SDS011;54469;52.090;4.312;2022-10-16T04:15:03;7.4;;;1.1;;
67685;SDS011;54469;52.090;4.312;2022-10-16T04:20:03;1.7;;;0.6;;
67685;SDS011;54469;52.090;4.312;2022-10-16T04:25:03;3.8;;;0.7;;
67685;SDS011;54469;52.090;4.312;2022-10-16T04:30:03;1.2;;;0.6;;
67685;SDS011;54469;52.090;4.312;2022-10-16T04:35:03;4.2;;;0.5;;
67685;SDS011;54469;52.090;4.312;2022-10-16T04:40:04;2;;;0.9;;
67685;SDS011;54469;52.090;4.312;2022-10-16T04:45:04;2;;;0.9;;
67685;SDS011;54469;52.090;4.312;2022-10-16T04:50:03;2;;;0.9;;
67685;SDS011;54469;52.090;4.312;2022-10-16T04:55:03;2;;;0.9;;
67685;SDS011;54469;52.090;4.312;2022-10-16T05:00:03;2;;;0.9;;
67685;SDS011;54469;52.090;4.312;2022-10-16T05:05:03;2;;;0.9;;
67685;SDS011;54469;52.090;4.312;2022-10-16T05:10:03;4.5;;;1;;
67685;SDS011;54469;52.090;4.312;2022-10-16T05:15:04;1.6;;;0.6;;
67685;SDS011;54469;52.090;4.312;2022-10-16T05:20:04;5.2;;;0.9;;
67685;SDS011;54469;52.090;4.312;2022-10-16T05:25:03;1.9;;;0.6;;
67685;SDS011;54469;52.090;4.312;2022-10-16T05:30:04;1.9;;;0.6;;
67685;SDS011;54469;52.090;4.312;2022-10-16T05:35:03;1.9;;;0.6;;
67685;SDS011;54469;52.090;4.312;2022-10-16T05:40:03;4.4;;;0.9;;
67685;SDS011;54469;52.090;4.312;2022-10-16T05:45:04;4.4;;;0.9;;
67685;SDS011;54469;52.090;4.312;2022-10-16T05:50:03;4.4;;;0.9;;
67685;SDS011;54469;52.090;4.312;2022-10-16T05:55:03;4.4;;;0.9;;
67685;SDS011;54469;52.090;4.312;2022-10-16T06:00:03;1.4;;;0.7;;
67685;SDS011;54469;52.090;4.312;2022-10-16T06:05:03;4.1;;;0.8;;
67685;SDS011;54469;52.090;4.312;2022-10-16T06:10:04;4.1;;;0.8;;
67685;SDS011;54469;52.090;4.312;2022-10-16T06:15:03;4.1;;;0.8;;
67685;SDS011;54469;52.090;4.312;2022-10-16T06:20:04;8.800000000000002;;;1.2;;
67685;SDS011;54469;52.090;4.312;2022-10-16T06:25:03;5.8;;;1;;
67685;SDS011;54469;52.090;4.312;2022-10-16T06:30:04;5.8;;;1;;
67685;SDS011;54469;52.090;4.312;2022-10-16T06:35:03;5.8;;;1;;
67685;SDS011;54469;52.090;4.312;2022-10-16T06:40:04;5.8;;;1;;
67685;SDS011;54469;52.090;4.312;2022-10-16T06:45:03;8;;;1.5;;
67685;SDS011;54469;52.090;4.312;2022-10-16T06:50:03;1.9;;;0.8;;
67685;SDS011;54469;52.090;4.312;2022-10-16T06:55:03;5;;;1.1;;
67685;SDS011;54469;52.090;4.312;2022-10-16T07:00:04;5;;;1.1;;
67685;SDS011;54469;52.090;4.312;2022-10-16T07:05:03;5;;;1.1;;
67685;SDS011;54469;52.090;4.312;2022-10-16T07:10:03;5;;;1.1;;
67685;SDS011;54469;52.090;4.312;2022-10-16T07:15:03;5;;;1.1;;
67685;SDS011;54469;52.090;4.312;2022-10-16T07:20:03;1.8;;;0.6;;
67685;SDS011;54469;52.090;4.312;2022-10-16T07:25:03;1.8;;;0.6;;
67685;SDS011;54469;52.090;4.312;2022-10-16T07:30:03;5.2;;;1.3;;
67685;SDS011;54469;52.090;4.312;2022-10-16T07:35:03;5.2;;;1.3;;
67685;SDS011;54469;52.090;4.312;2022-10-16T07:40:03;5.2;;;1.3;;
67685;SDS011;54469;52.090;4.312;2022-10-16T07:45:03;5.2;;;1.3;;
67685;SDS011;54469;52.090;4.312;2022-10-16T07:50:04;5.2;;;1.3;;
67685;SDS011;54469;52.090;4.312;2022-10-16T07:55:03;7.5;;;1.5;;
67685;SDS011;54469;52.090;4.312;2022-10-16T08:00:04;7.5;;;1.5;;
67685;SDS011;54469;52.090;4.312;2022-10-16T08:05:03;7.5;;;1.5;;
67685;SDS011;54469;52.090;4.312;2022-10-16T08:10:03;7.5;;;1.5;;
67685;SDS011;54469;52.090;4.312;2022-10-16T08:15:03;7.5;;;1.5;;
67685;SDS011;54469;52.090;4.312;2022-10-16T08:20:03;7.5;;;1.5;;
67685;SDS011;54469;52.090;4.312;2022-10-16T08:25:03;7.5;;;1.5;;
67685;SDS011;54469;52.090;4.312;2022-10-16T08:30:03;4.8;;;1;;
67685;SDS011;54469;52.090;4.312;2022-10-16T08:35:03;8.4;;;1.6;;
67685;SDS011;54469;52.090;4.312;2022-10-16T08:40:03;8.4;;;1.6;;
67685;SDS011;54469;52.090;4.312;2022-10-16T08:45:38;8.4;;;1.6;;
67685;SDS011;54469;52.090;4.312;2022-10-16T08:50:08;5.3;;;1.2;;
67685;SDS011;54469;52.090;4.312;2022-10-16T08:55:04;10.4;;;1.9;;
67685;SDS011;54469;52.090;4.312;2022-10-16T09:00:05;7.7;;;1.5;;
67685;SDS011;54469;52.090;4.312;2022-10-16T09:05:11;7.7;;;1.5;;
67685;SDS011;54469;52.090;4.312;2022-10-16T09:10:07;11.7;;;2.1;;
67685;SDS011;54469;52.090;4.312;2022-10-16T09:15:07;7.8;;;1.7;;
67685;SDS011;54469;52.090;4.312;2022-10-16T09:20:09;7.8;;;1.7;;
67685;SDS011;54469;52.090;4.312;2022-10-16T09:25:10;7.8;;;1.7;;
67685;SDS011;54469;52.090;4.312;2022-10-16T09:30:09;7.8;;;1.7;;
67685;SDS011;54469;52.090;4.312;2022-10-16T09:35:03;9.9;;;2.3;;
67685;SDS011;54469;52.090;4.312;2022-10-16T09:40:03;6;;;1.7;;
67685;SDS011;54469;52.090;4.312;2022-10-16T09:45:03;6;;;1.7;;
67685;SDS011;54469;52.090;4.312;2022-10-16T09:50:04;8.1;;;2.2;;
67685;SDS011;54469;52.090;4.312;2022-10-16T09:55:12;8.1;;;2.2;;
67685;SDS011;54469;52.090;4.312;2022-10-16T10:00:08;8.1;;;2.2;;
67685;SDS011;54469;52.090;4.312;2022-10-16T10:05:03;8.1;;;2.2;;
67685;SDS011;54469;52.090;4.312;2022-10-16T10:10:04;8.1;;;2.2;;
67685;SDS011;54469;52.090;4.312;2022-10-16T10:15:04;8.1;;;2.2;;
67685;SDS011;54469;52.090;4.312;2022-10-16T10:20:15;8.1;;;2.2;;
67685;SDS011;54469;52.090;4.312;2022-10-16T10:25:21;13.1;;;2.7;;
67685;SDS011;54469;52.090;4.312;2022-10-16T10:30:04;7.4;;;2.7;;
67685;SDS011;54469;52.090;4.312;2022-10-16T10:35:07;7.4;;;2.7;;
67685;SDS011;54469;52.090;4.312;2022-10-16T10:40:04;7.4;;;2.7;;
67685;SDS011;54469;52.090;4.312;2022-10-16T10:45:11;7.4;;;2.7;;
67685;SDS011;54469;52.090;4.312;2022-10-16T10:50:06;7.4;;;2.7;;
67685;SDS011;54469;52.090;4.312;2022-10-16T10:55:09;7.4;;;2.7;;
67685;SDS011;54469;52.090;4.312;2022-10-16T11:00:06;7.4;;;2.7;;
67685;SDS011;54469;52.090;4.312;2022-10-16T11:05:09;10.199999999999998;;;2.9;;
67685;SDS011;54469;52.090;4.312;2022-10-16T11:10:05;10.199999999999998;;;2.9;;
67685;SDS011;54469;52.090;4.312;2022-10-16T11:15:04;7.6;;;2.5;;
67685;SDS011;54469;52.090;4.312;2022-10-16T11:20:04;7.6;;;2.5;;
67685;SDS011;54469;52.090;4.312;2022-10-16T11:25:05;9.800000000000002;;;3;;
67685;SDS011;54469;52.090;4.312;2022-10-16T11:30:04;7.6;;;2.7;;
67685;SDS011;54469;52.090;4.312;2022-10-16T11:35:05;7.6;;;2.7;;
67685;SDS011;54469;52.090;4.312;2022-10-16T11:40:05;4.5;;;2.1;;
67685;SDS011;54469;52.090;4.312;2022-10-16T11:45:07;6.6;;;2;;
67685;SDS011;54469;52.090;4.312;2022-10-16T11:50:06;6.6;;;2;;
67685;SDS011;54469;52.090;4.312;2022-10-16T11:55:04;11.6;;;2.8;;
67685;SDS011;54469;52.090;4.312;2022-10-16T12:00:04;5.8;;;2.4;;
67685;SDS011;54469;52.090;4.312;2022-10-16T12:05:07;10.3;;;2.9;;
67685;SDS011;54469;52.090;4.312;2022-10-16T12:10:10;10.3;;;2.9;;
67685;SDS011;54469;52.090;4.312;2022-10-16T12:15:17;10.3;;;2.9;;
67685;SDS011;54469;52.090;4.312;2022-10-16T12:20:18;7.3;;;3.1;;
67685;SDS011;54469;52.090;4.312;2022-10-16T12:25:04;7.3;;;3.1;;
67685;SDS011;54469;52.090;4.312;2022-10-16T12:30:04;7.3;;;3.1;;
67685;SDS011;54469;52.090;4.312;2022-10-16T12:35:03;7.3;;;3.1;;
67685;SDS011;54469;52.090;4.312;2022-10-16T12:40:11;7.3;;;3.1;;
67685;SDS011;54469;52.090;4.312;2022-10-16T12:45:21;7.3;;;3.1;;
67685;SDS011;54469;52.090;4.312;2022-10-16T12:50:21;9;;;1.9;;
67685;SDS011;54469;52.090;4.312;2022-10-16T12:55:04;9;;;1.9;;
67685;SDS011;54469;52.090;4.312;2022-10-16T13:00:04;9;;;1.9;;
67685;SDS011;54469;52.090;4.312;2022-10-16T13:05:09;9;;;1.9;;
67685;SDS011;54469;52.090;4.312;2022-10-16T13:10:06;9;;;1.9;;
67685;SDS011;54469;52.090;4.312;2022-10-16T13:15:07;11.1;;;1.8;;
67685;SDS011;54469;52.090;4.312;2022-10-16T13:20:06;5;;;1.3;;
67685;SDS011;54469;52.090;4.312;2022-10-16T13:25:08;9.5;;;1.4;;
67685;SDS011;54469;52.090;4.312;2022-10-16T13:30:08;9.5;;;1.4;;
67685;SDS011;54469;52.090;4.312;2022-10-16T13:35:03;9.5;;;1.4;;
67685;SDS011;54469;52.090;4.312;2022-10-16T13:40:09;9.5;;;1.4;;
67685;SDS011;54469;52.090;4.312;2022-10-16T13:45:03;9.5;;;1.4;;
67685;SDS011;54469;52.090;4.312;2022-10-16T13:50:04;11.1;;;2.6;;
67685;SDS011;54469;52.090;4.312;2022-10-16T13:55:03;8.9;;;1.3;;
67685;SDS011;54469;52.090;4.312;2022-10-16T14:00:20;12.1;;;2.1;;
67685;SDS011;54469;52.090;4.312;2022-10-16T14:05:04;12.1;;;2.1;;
67685;SDS011;54469;52.090;4.312;2022-10-16T14:10:04;8.4;;;1.8;;
67685;SDS011;54469;52.090;4.312;2022-10-16T14:15:03;8.4;;;1.8;;
67685;SDS011;54469;52.090;4.312;2022-10-16T14:20:05;12.9;;;2;;
67685;SDS011;54469;52.090;4.312;2022-10-16T14:25:27;10;;;2.2;;
67685;SDS011;54469;52.090;4.312;2022-10-16T14:30:08;10;;;2.2;;
67685;SDS011;54469;52.090;4.312;2022-10-16T14:35:03;14.7;;;2.1;;
67685;SDS011;54469;52.090;4.312;2022-10-16T14:40:03;14.7;;;2.1;;
67685;SDS011;54469;52.090;4.312;2022-10-16T14:45:07;10.9;;;2;;
67685;SDS011;54469;52.090;4.312;2022-10-16T14:50:04;13.1;;;2.6;;
67685;SDS011;54469;52.090;4.312;2022-10-16T14:55:04;15.1;;;1.9;;
67685;SDS011;54469;52.090;4.312;2022-10-16T15:00:03;15.1;;;1.9;;
67685;SDS011;54469;52.090;4.312;2022-10-16T15:05:10;11;;;2.2;;
67685;SDS011;54469;52.090;4.312;2022-10-16T15:10:03;18.3;;;3.1;;
67685;SDS011;54469;52.090;4.312;2022-10-16T15:15:12;14.6;;;2.8;;
67685;SDS011;54469;52.090;4.312;2022-10-16T15:20:03;11;;;2.4;;
67685;SDS011;54469;52.090;4.312;2022-10-16T15:25:04;14.3;;;2.4;;
67685;SDS011;54469;52.090;4.312;2022-10-16T15:30:04;14.3;;;2.4;;
67685;SDS011;54469;52.090;4.312;2022-10-16T15:35:03;14.3;;;2.4;;
67685;SDS011;54469;52.090;4.312;2022-10-16T15:40:04;11.9;;;2.1;;
67685;SDS011;54469;52.090;4.312;2022-10-16T15:45:04;11.9;;;2.1;;
67685;SDS011;54469;52.090;4.312;2022-10-16T15:50:03;11.9;;;2.1;;
67685;SDS011;54469;52.090;4.312;2022-10-16T15:55:04;14.4;;;2.5;;
67685;SDS011;54469;52.090;4.312;2022-10-16T16:00:05;14.4;;;2.5;;
67685;SDS011;54469;52.090;4.312;2022-10-16T16:05:04;12;;;2.4;;
67685;SDS011;54469;52.090;4.312;2022-10-16T16:10:04;12;;;2.4;;
67685;SDS011;54469;52.090;4.312;2022-10-16T16:15:04;17.7;;;2.8;;
67685;SDS011;54469;52.090;4.312;2022-10-16T16:20:04;12.4;;;2.4;;
67685;SDS011;54469;52.090;4.312;2022-10-16T16:25:03;17;;;2.8;;
67685;SDS011;54469;52.090;4.312;2022-10-16T16:30:03;12.8;;;3;;
67685;SDS011;54469;52.090;4.312;2022-10-16T16:35:03;12.8;;;3;;
67685;SDS011;54469;52.090;4.312;2022-10-16T16:40:03;16.7;;;3.9;;
67685;SDS011;54469;52.090;4.312;2022-10-16T16:45:04;16.7;;;3.9;;
67685;SDS011;54469;52.090;4.312;2022-10-16T16:50:03;16.7;;;3.9;;
67685;SDS011;54469;52.090;4.312;2022-10-16T16:55:03;16.7;;;3.9;;
67685;SDS011;54469;52.090;4.312;2022-10-16T17:00:04;16.7;;;3.9;;
67685;SDS011;54469;52.090;4.312;2022-10-16T17:05:03;11.3;;;3.9;;
67685;SDS011;54469;52.090;4.312;2022-10-16T17:10:03;16.3;;;3.7;;
67685;SDS011;54469;52.090;4.312;2022-10-16T17:15:03;16.3;;;3.7;;
67685;SDS011;54469;52.090;4.312;2022-10-16T17:20:04;20.399999999999995;;;4.9;;
67685;SDS011;54469;52.090;4.312;2022-10-16T17:25:03;18;;;4.9;;
67685;SDS011;54469;52.090;4.312;2022-10-16T17:30:04;20.7;;;5;;
67685;SDS011;54469;52.090;4.312;2022-10-16T17:35:03;18.600000000000005;;;5.2;;
67685;SDS011;54469;52.090;4.312;2022-10-16T17:40:04;24.6;;;5.1;;
67685;SDS011;54469;52.090;4.312;2022-10-16T17:45:03;24.6;;;5.1;;
67685;SDS011;54469;52.090;4.312;2022-10-16T17:50:03;25.2;;;6.5;;
67685;SDS011;54469;52.090;4.312;2022-10-16T17:55:04;19;;;5.1;;
67685;SDS011;54469;52.090;4.312;2022-10-16T18:00:03;19;;;5.1;;
67685;SDS011;54469;52.090;4.312;2022-10-16T18:05:04;19;;;5.1;;
67685;SDS011;54469;52.090;4.312;2022-10-16T18:10:03;16.6;;;4;;
67685;SDS011;54469;52.090;4.312;2022-10-16T18:15:04;14.4;;;4.2;;
67685;SDS011;54469;52.090;4.312;2022-10-16T18:20:04;14.4;;;4.2;;
67685;SDS011;54469;52.090;4.312;2022-10-16T18:25:04;14.4;;;4.2;;
67685;SDS011;54469;52.090;4.312;2022-10-16T18:30:04;14.4;;;4.2;;
67685;SDS011;54469;52.090;4.312;2022-10-16T18:35:03;19.399999999999995;;;3.6;;
67685;SDS011;54469;52.090;4.312;2022-10-16T18:40:03;16.1;;;4.1;;
67685;SDS011;54469;52.090;4.312;2022-10-16T18:45:03;18.3;;;4;;
67685;SDS011;54469;52.090;4.312;2022-10-16T18:50:04;18.3;;;4;;
67685;SDS011;54469;52.090;4.312;2022-10-16T18:55:03;16;;;3.7;;
67685;SDS011;54469;52.090;4.312;2022-10-16T19:00:03;16;;;3.7;;
67685;SDS011;54469;52.090;4.312;2022-10-16T19:05:03;14;;;4.2;;
67685;SDS011;54469;52.090;4.312;2022-10-16T19:10:03;16.5;;;3.7;;
67685;SDS011;54469;52.090;4.312;2022-10-16T19:15:04;13;;;3.7;;
67685;SDS011;54469;52.090;4.312;2022-10-16T19:20:03;19.2;;;3.6;;
67685;SDS011;54469;52.090;4.312;2022-10-16T19:25:03;14.6;;;3.2;;
67685;SDS011;54469;52.090;4.312;2022-10-16T19:30:04;14.6;;;3.2;;
67685;SDS011;54469;52.090;4.312;2022-10-16T19:35:03;14.6;;;3.2;;
67685;SDS011;54469;52.090;4.312;2022-10-16T19:40:04;14.6;;;3.2;;
67685;SDS011;54469;52.090;4.312;2022-10-16T19:45:04;11.7;;;2.7;;
67685;SDS011;54469;52.090;4.312;2022-10-16T19:50:04;11.7;;;2.7;;
67685;SDS011;54469;52.090;4.312;2022-10-16T19:55:03;18.2;;;4.6;;
67685;SDS011;54469;52.090;4.312;2022-10-16T20:00:03;11.9;;;3.3;;
67685;SDS011;54469;52.090;4.312;2022-10-16T20:05:04;16.7;;;2.8;;
67685;SDS011;54469;52.090;4.312;2022-10-16T20:10:03;12.5;;;2.9;;
67685;SDS011;54469;52.090;4.312;2022-10-16T20:15:03;10.5;;;2.5;;
67685;SDS011;54469;52.090;4.312;2022-10-16T20:20:04;10.5;;;2.5;;
67685;SDS011;54469;52.090;4.312;2022-10-16T20:25:03;10.5;;;2.5;;
67685;SDS011;54469;52.090;4.312;2022-10-16T20:30:04;10.5;;;2.5;;
67685;SDS011;54469;52.090;4.312;2022-10-16T20:35:03;10.5;;;2.5;;
67685;SDS011;54469;52.090;4.312;2022-10-16T20:40:03;10.5;;;2.5;;
67685;SDS011;54469;52.090;4.312;2022-10-16T20:45:04;13.2;;;3.4;;
67685;SDS011;54469;52.090;4.312;2022-10-16T20:50:03;13.2;;;3.4;;
67685;SDS011;54469;52.090;4.312;2022-10-16T20:55:04;13.2;;;3.4;;
67685;SDS011;54469;52.090;4.312;2022-10-16T21:00:04;8.199999999999998;;;3.3;;
67685;SDS011;54469;52.090;4.312;2022-10-16T21:05:04;10.6;;;3.6;;
67685;SDS011;54469;52.090;4.312;2022-10-16T21:10:05;15.6;;;4;;
67685;SDS011;54469;52.090;4.312;2022-10-16T21:15:05;9.6;;;3.4;;
67685;SDS011;54469;52.090;4.312;2022-10-16T21:20:05;9.6;;;3.4;;
67685;SDS011;54469;52.090;4.312;2022-10-16T21:25:03;9.6;;;3.4;;
67685;SDS011;54469;52.090;4.312;2022-10-16T21:30:03;9.6;;;3.4;;
67685;SDS011;54469;52.090;4.312;2022-10-16T21:35:04;9.6;;;3.4;;
67685;SDS011;54469;52.090;4.312;2022-10-16T21:40:03;9.6;;;3.4;;
67685;SDS011;54469;52.090;4.312;2022-10-16T21:45:04;9.6;;;3.4;;
67685;SDS011;54469;52.090;4.312;2022-10-16T21:50:03;7.3;;;3.4;;
67685;SDS011;54469;52.090;4.312;2022-10-16T21:55:04;11.2;;;3.4;;
67685;SDS011;54469;52.090;4.312;2022-10-16T22:00:04;11.2;;;3.4;;
67685;SDS011;54469;52.090;4.312;2022-10-16T22:05:03;6.3;;;3.6;;
67685;SDS011;54469;52.090;4.312;2022-10-16T22:10:03;6.3;;;3.6;;
67685;SDS011;54469;52.090;4.312;2022-10-16T22:15:04;8.5;;;3;;
67685;SDS011;54469;52.090;4.312;2022-10-16T22:20:03;8.5;;;3;;
67685;SDS011;54469;52.090;4.312;2022-10-16T22:25:04;8.5;;;3;;
67685;SDS011;54469;52.090;4.312;2022-10-16T22:30:03;8.5;;;3;;
67685;SDS011;54469;52.090;4.312;2022-10-16T22:35:03;8.5;;;3;;
67685;SDS011;54469;52.090;4.312;2022-10-16T22:40:04;8.5;;;3;;
67685;SDS011;54469;52.090;4.312;2022-10-16T22:45:03;5.4;;;2.9;;
67685;SDS011;54469;52.090;4.312;2022-10-16T22:50:04;8;;;3.2;;
67685;SDS011;54469;52.090;4.312;2022-10-16T22:55:04;5.1;;;2.9;;
67685;SDS011;54469;52.090;4.312;2022-10-16T23:00:03;5.1;;;2.9;;
67685;SDS011;54469;52.090;4.312;2022-10-16T23:05:03;7.3;;;3.1;;
67685;SDS011;54469;52.090;4.312;2022-10-16T23:10:03;9.6;;;2.9;;
67685;SDS011;54469;52.090;4.312;2022-10-16T23:15:04;6.8;;;2.9;;
67685;SDS011;54469;52.090;4.312;2022-10-16T23:20:03;6.8;;;2.9;;
67685;SDS011;54469;52.090;4.312;2022-10-16T23:25:03;4.6;;;2.2;;
67685;SDS011;54469;52.090;4.312;2022-10-16T23:30:03;7;;;2.5;;
67685;SDS011;54469;52.090;4.312;2022-10-16T23:35:03;4;;;2.2;;
67685;SDS011;54469;52.090;4.312;2022-10-16T23:40:03;4;;;2.2;;
67685;SDS011;54469;52.090;4.312;2022-10-16T23:45:03;4;;;2.2;;
67685;SDS011;54469;52.090;4.312;2022-10-16T23:50:04;4;;;2.2;;
67685;SDS011;54469;52.090;4.312;2022-10-16T23:55:03;4;;;2.2;;
